METAR metoinfo z LKNA (Náměšť nad Oslavou

Orig link LKNA zde

 

LKNA 262030Z 26006KT 9999 FEW022 OVC031 09/08 Q1007 NOSIG

 

 

Permanent link to this article: http://www.airfly.cz/2018/06/26/metar-metoinfo-z-lkna-namest-nad-oslavou/

Napsat komentář